createdAt,value
2023-05-10T00:00:17.401Z,12.97
2023-05-10T00:02:45.427Z,13.02
2023-05-10T00:05:14.587Z,13.05
2023-05-10T00:07:45.630Z,13.07
2023-05-10T00:10:14.192Z,13.05
2023-05-10T00:12:41.965Z,13.07
2023-05-10T00:15:11.014Z,13.08
2023-05-10T00:17:38.848Z,13.06
2023-05-10T00:20:07.690Z,13.02
2023-05-10T00:22:36.752Z,12.99
2023-05-10T00:25:04.689Z,13.01
2023-05-10T00:27:32.422Z,12.97
2023-05-10T00:30:00.185Z,12.97
2023-05-10T00:32:28.043Z,12.95
2023-05-10T00:34:55.856Z,12.86
2023-05-10T00:37:23.776Z,12.73
2023-05-10T00:39:52.779Z,12.77
2023-05-10T00:42:20.489Z,12.69
2023-05-10T00:44:48.629Z,12.78
2023-05-10T00:47:16.505Z,12.85
2023-05-10T00:49:44.818Z,12.72
2023-05-10T00:52:12.772Z,12.52
2023-05-10T00:54:40.644Z,12.76
2023-05-10T00:57:09.798Z,12.79
2023-05-10T00:59:37.788Z,12.64
2023-05-10T01:02:05.729Z,12.64
2023-05-10T01:04:33.699Z,12.70
2023-05-10T01:07:02.038Z,12.68
2023-05-10T01:09:30.070Z,12.66
2023-05-10T01:11:58.785Z,12.30
2023-05-10T01:14:28.711Z,12.61
2023-05-10T01:16:57.187Z,12.62
2023-05-10T01:19:26.977Z,12.45
2023-05-10T01:22:04.564Z,12.53
2023-05-10T01:25:13.377Z,12.40
2023-05-10T01:27:57.739Z,12.59
2023-05-10T01:30:45.076Z,12.48
2023-05-10T01:33:20.851Z,12.51
2023-05-10T01:35:57.414Z,12.50
2023-05-10T01:38:32.643Z,12.62
2023-05-10T01:41:14.176Z,12.65
2023-05-10T01:43:50.457Z,12.63
2023-05-10T01:46:26.818Z,12.73
2023-05-10T01:48:59.486Z,12.76
2023-05-10T01:51:30.969Z,12.70
2023-05-10T01:54:03.406Z,12.67
2023-05-10T01:56:34.098Z,12.89
2023-05-10T01:59:03.517Z,12.70
2023-05-10T02:01:32.122Z,12.67
2023-05-10T02:04:01.913Z,12.49
2023-05-10T02:06:29.608Z,12.73
2023-05-10T02:08:58.485Z,12.55
2023-05-10T02:11:28.372Z,12.65
2023-05-10T02:13:58.348Z,12.60
2023-05-10T02:16:28.517Z,12.65
2023-05-10T02:18:59.145Z,12.68
2023-05-10T02:21:30.052Z,12.66
2023-05-10T02:24:00.014Z,12.58
2023-05-10T02:26:28.920Z,12.51
2023-05-10T02:28:59.315Z,12.49
2023-05-10T02:31:28.106Z,12.54
2023-05-10T02:33:57.333Z,12.49
2023-05-10T02:36:25.298Z,12.46
2023-05-10T02:38:55.312Z,12.41
2023-05-10T02:41:24.742Z,12.32
2023-05-10T02:43:57.030Z,12.35
2023-05-10T02:46:25.797Z,12.14
2023-05-10T02:48:53.583Z,12.19
2023-05-10T02:51:25.689Z,12.09
2023-05-10T02:53:57.110Z,12.25
2023-05-10T02:56:30.696Z,12.12
2023-05-10T02:58:58.518Z,12.19
2023-05-10T03:01:26.298Z,12.17
2023-05-10T03:03:54.403Z,12.19
2023-05-10T03:06:22.167Z,11.99
2023-05-10T03:08:49.987Z,12.07
2023-05-10T03:11:30.980Z,12.00
2023-05-10T03:14:12.351Z,12.10
2023-05-10T03:16:48.631Z,11.97
2023-05-10T03:19:20.584Z,12.09
2023-05-10T03:21:53.215Z,11.95
2023-05-10T03:24:23.890Z,11.95
2023-05-10T03:26:57.572Z,12.18
2023-05-10T03:29:27.703Z,12.17
2023-05-10T03:31:55.816Z,12.02
2023-05-10T03:34:25.814Z,12.03
2023-05-10T03:36:53.464Z,12.06
2023-05-10T03:39:22.284Z,11.89
2023-05-10T03:41:50.071Z,11.87
2023-05-10T03:44:19.799Z,11.81
2023-05-10T03:46:47.557Z,11.87
2023-05-10T03:49:15.436Z,11.92
2023-05-10T03:51:43.278Z,12.00
2023-05-10T03:54:11.072Z,11.73
2023-05-10T03:56:38.783Z,11.76
2023-05-10T03:59:08.450Z,11.77
2023-05-10T04:01:37.554Z,11.79
2023-05-10T04:04:05.687Z,11.74
2023-05-10T04:06:33.963Z,11.71
2023-05-10T04:09:05.095Z,11.83
2023-05-10T04:11:32.794Z,12.00
2023-05-10T04:14:00.556Z,11.96
2023-05-10T04:16:28.264Z,11.91
2023-05-10T04:18:57.396Z,11.91
2023-05-10T04:21:25.057Z,11.91
2023-05-10T04:23:52.846Z,12.16
2023-05-10T04:26:21.135Z,12.08
2023-05-10T04:28:48.920Z,12.00
2023-05-10T04:31:16.666Z,12.14
2023-05-10T04:33:44.390Z,12.17
2023-05-10T04:36:13.954Z,12.17
2023-05-10T04:38:41.596Z,11.99
2023-05-10T04:41:10.474Z,12.16
2023-05-10T04:43:39.335Z,12.37
2023-05-10T04:46:08.127Z,12.27
2023-05-10T04:48:36.155Z,12.24
2023-05-10T04:51:04.984Z,12.14
2023-05-10T04:53:34.384Z,12.19
2023-05-10T04:56:02.511Z,12.11
2023-05-10T04:58:30.344Z,12.20
2023-05-10T05:00:58.141Z,12.25
2023-05-10T05:03:25.995Z,12.13
2023-05-10T05:05:53.840Z,12.21
2023-05-10T05:08:21.538Z,12.19
2023-05-10T05:10:51.746Z,12.16
2023-05-10T05:13:19.468Z,12.10
2023-05-10T05:15:47.301Z,12.32
2023-05-10T05:18:15.072Z,12.26
2023-05-10T05:20:42.832Z,12.11
2023-05-10T05:23:10.506Z,12.11
2023-05-10T05:25:38.399Z,12.14
2023-05-10T05:28:07.651Z,11.92
2023-05-10T05:30:35.436Z,11.94
2023-05-10T05:33:03.225Z,12.01
2023-05-10T05:35:31.115Z,11.98
2023-05-10T05:37:58.769Z,12.15
2023-05-10T05:40:26.549Z,12.12
2023-05-10T05:42:54.253Z,11.90
2023-05-10T05:45:23.582Z,12.08
2023-05-10T05:47:51.337Z,12.14
2023-05-10T05:50:19.538Z,12.29
2023-05-10T05:52:47.443Z,12.39
2023-05-10T05:55:15.277Z,12.33
2023-05-10T05:57:43.340Z,12.47
2023-05-10T06:00:11.919Z,12.42
2023-05-10T06:02:41.609Z,12.57
2023-05-10T06:05:10.436Z,12.60
2023-05-10T06:07:38.055Z,12.47
2023-05-10T06:10:06.859Z,12.31
2023-05-10T06:12:34.478Z,12.29
2023-05-10T06:15:02.147Z,12.57
2023-05-10T06:17:29.820Z,12.65
2023-05-10T06:19:58.896Z,12.62
2023-05-10T06:22:26.619Z,12.67
2023-05-10T06:24:54.390Z,12.36
2023-05-10T06:27:22.666Z,12.22
2023-05-10T06:29:52.238Z,12.45
2023-05-10T06:32:24.309Z,12.39
2023-05-10T06:34:52.049Z,12.18
2023-05-10T06:37:21.308Z,12.47
2023-05-10T06:39:49.558Z,12.46
2023-05-10T06:42:17.275Z,12.61
2023-05-10T06:44:44.992Z,12.80
2023-05-10T06:47:12.728Z,12.81
2023-05-10T06:49:41.092Z,12.79
2023-05-10T06:52:08.764Z,13.08
2023-05-10T06:54:38.004Z,13.28
2023-05-10T06:57:10.768Z,13.36
2023-05-10T06:59:44.239Z,13.25
2023-05-10T07:02:12.139Z,13.22
2023-05-10T07:04:40.211Z,12.83
2023-05-10T07:07:07.965Z,13.12
2023-05-10T07:09:37.132Z,13.13
2023-05-10T07:12:05.800Z,13.23
2023-05-10T07:14:34.535Z,13.07
2023-05-10T07:17:02.276Z,13.15
2023-05-10T07:19:30.828Z,13.26
2023-05-10T07:21:58.528Z,13.36
2023-05-10T07:24:26.350Z,13.07
2023-05-10T07:26:55.661Z,13.10
2023-05-10T07:29:23.415Z,13.33
2023-05-10T07:31:51.190Z,13.38
2023-05-10T07:34:19.285Z,13.42
2023-05-10T07:36:47.041Z,13.44
2023-05-10T07:39:21.355Z,13.36
2023-05-10T07:41:56.271Z,12.98
2023-05-10T07:44:24.093Z,12.71
2023-05-10T07:46:51.928Z,12.71
2023-05-10T07:49:19.716Z,12.35
2023-05-10T07:51:47.443Z,12.26
2023-05-10T07:54:16.471Z,12.54
2023-05-10T07:56:46.719Z,12.72
2023-05-10T07:59:17.485Z,12.95
2023-05-10T08:01:46.155Z,13.14
2023-05-10T08:04:13.903Z,13.30
2023-05-10T08:06:42.118Z,13.34
2023-05-10T08:09:10.402Z,13.39
2023-05-10T08:11:38.264Z,13.63
2023-05-10T08:14:06.158Z,13.64
2023-05-10T08:16:35.279Z,13.97
2023-05-10T08:19:03.152Z,14.12
2023-05-10T08:21:32.196Z,14.31
2023-05-10T08:23:59.990Z,14.44
2023-05-10T08:26:27.791Z,14.60
2023-05-10T08:28:55.421Z,14.25
2023-05-10T08:31:23.465Z,14.23
2023-05-10T08:33:53.542Z,14.58
2023-05-10T08:36:22.771Z,14.77
2023-05-10T08:38:52.394Z,14.90
2023-05-10T08:41:22.811Z,15.06
2023-05-10T08:43:51.858Z,14.88
2023-05-10T08:46:21.759Z,15.01
2023-05-10T08:48:51.039Z,15.25
2023-05-10T08:51:22.240Z,15.20
2023-05-10T08:53:50.098Z,14.79
2023-05-10T08:56:18.869Z,15.07
2023-05-10T08:58:46.924Z,15.33
2023-05-10T09:01:17.204Z,15.16
2023-05-10T09:03:45.860Z,14.96
2023-05-10T09:06:14.636Z,15.16
2023-05-10T09:08:45.476Z,15.32
2023-05-10T09:11:14.546Z,14.80
2023-05-10T09:13:42.529Z,14.39
2023-05-10T09:16:21.301Z,14.63
2023-05-10T09:18:50.643Z,14.60
2023-05-10T09:21:18.510Z,14.58
2023-05-10T09:23:48.633Z,14.82
2023-05-10T09:26:17.071Z,15.15
2023-05-10T09:28:55.249Z,15.42
2023-05-10T09:31:23.019Z,15.68
2023-05-10T09:33:51.714Z,15.76
2023-05-10T09:36:19.235Z,14.77
2023-05-10T09:38:49.803Z,15.26
2023-05-10T09:41:19.104Z,15.45
2023-05-10T09:43:46.929Z,15.13
2023-05-10T09:46:14.966Z,15.22
2023-05-10T09:48:45.937Z,15.04
2023-05-10T09:51:21.150Z,15.36
2023-05-10T09:53:51.618Z,15.25
2023-05-10T09:56:39.579Z,15.52
2023-05-10T09:59:08.251Z,15.13
2023-05-10T10:01:35.884Z,15.23
2023-05-10T10:04:06.698Z,15.08
2023-05-10T10:06:39.603Z,15.13
2023-05-10T10:09:09.347Z,14.74
2023-05-10T10:11:38.164Z,14.97
2023-05-10T10:14:06.253Z,14.90
2023-05-10T10:16:34.803Z,14.68
2023-05-10T10:19:02.733Z,14.61
2023-05-10T10:21:30.638Z,14.76
2023-05-10T10:23:58.437Z,14.93
2023-05-10T10:26:27.905Z,15.66
2023-05-10T10:29:06.800Z,15.53
2023-05-10T10:31:41.218Z,15.03
2023-05-10T10:34:11.997Z,15.35
2023-05-10T10:36:44.285Z,15.12
2023-05-10T10:39:13.474Z,15.68
2023-05-10T10:41:51.756Z,15.96
2023-05-10T10:44:37.712Z,15.69
2023-05-10T10:47:28.387Z,15.96
2023-05-10T10:50:05.702Z,15.74
2023-05-10T10:52:35.131Z,15.70
2023-05-10T10:55:06.195Z,16.17
2023-05-10T10:57:44.655Z,16.31
2023-05-10T11:00:25.441Z,16.21
2023-05-10T11:02:55.057Z,15.70
2023-05-10T11:05:42.290Z,16.23
2023-05-10T11:08:13.560Z,15.78
2023-05-10T11:10:42.484Z,15.64
2023-05-10T11:13:12.220Z,16.05
2023-05-10T11:15:41.693Z,15.61
2023-05-10T11:18:28.064Z,15.61
2023-05-10T11:20:59.965Z,15.83
2023-05-10T11:23:33.123Z,15.92
2023-05-10T11:26:02.212Z,15.57
2023-05-10T11:28:31.373Z,16.00
2023-05-10T11:30:59.732Z,16.20
2023-05-10T11:33:27.453Z,15.73
2023-05-10T11:35:55.161Z,15.50
2023-05-10T11:38:22.880Z,15.18
2023-05-10T11:40:54.985Z,15.01
2023-05-10T11:43:29.220Z,15.51
2023-05-10T11:45:58.724Z,15.34
2023-05-10T11:48:26.498Z,15.19
2023-05-10T11:50:58.069Z,15.73
2023-05-10T11:53:28.052Z,15.54
2023-05-10T11:55:55.716Z,15.47
2023-05-10T11:58:24.376Z,15.79
2023-05-10T12:00:52.134Z,16.07
2023-05-10T12:03:21.603Z,16.30
2023-05-10T12:05:49.580Z,16.80
2023-05-10T12:08:22.061Z,16.77
2023-05-10T12:10:49.844Z,16.95
2023-05-10T12:13:17.799Z,16.69
2023-05-10T12:15:46.013Z,17.08
2023-05-10T12:18:13.974Z,17.60
2023-05-10T12:20:43.529Z,17.45
2023-05-10T12:23:11.987Z,16.85
2023-05-10T12:25:40.811Z,16.91
2023-05-10T12:28:10.969Z,16.90
2023-05-10T12:30:39.206Z,17.26
2023-05-10T12:33:11.110Z,17.52
2023-05-10T12:35:52.198Z,17.70
2023-05-10T12:38:31.867Z,17.76
2023-05-10T12:41:00.646Z,17.89
2023-05-10T12:43:28.570Z,17.86
2023-05-10T12:45:56.414Z,17.69
2023-05-10T12:48:24.223Z,17.38
2023-05-10T12:50:53.298Z,16.18
2023-05-10T12:53:21.027Z,15.97
2023-05-10T12:55:48.869Z,15.77
2023-05-10T12:58:31.306Z,15.58
2023-05-10T13:01:02.497Z,15.37
2023-05-10T13:03:30.200Z,15.28
2023-05-10T13:05:59.289Z,15.19
2023-05-10T13:08:27.083Z,15.07
2023-05-10T13:10:54.876Z,14.92
2023-05-10T13:13:22.557Z,14.75
2023-05-10T13:15:50.218Z,14.80
2023-05-10T13:18:18.077Z,14.95
2023-05-10T13:20:46.191Z,14.85
2023-05-10T13:23:15.341Z,14.77
2023-05-10T13:25:43.046Z,14.78
2023-05-10T13:28:10.798Z,14.76
2023-05-10T13:30:38.488Z,14.81
2023-05-10T13:33:06.384Z,15.27
2023-05-10T13:35:34.183Z,14.91
2023-05-10T13:38:01.787Z,14.83
2023-05-10T13:40:30.980Z,14.79
2023-05-10T13:42:58.693Z,14.86
2023-05-10T13:45:26.465Z,14.95
2023-05-10T13:47:54.183Z,15.20
2023-05-10T13:50:22.330Z,15.01
2023-05-10T13:52:50.012Z,15.03
2023-05-10T13:55:18.246Z,15.20
2023-05-10T13:57:47.498Z,15.17
2023-05-10T14:00:16.229Z,15.48
2023-05-10T14:02:44.055Z,15.53
2023-05-10T14:05:12.788Z,15.22
2023-05-10T14:07:40.739Z,15.22
2023-05-10T14:10:08.970Z,15.39
2023-05-10T14:12:36.569Z,15.46
2023-05-10T14:15:07.701Z,15.83
2023-05-10T14:17:35.619Z,16.33
2023-05-10T14:20:04.676Z,15.85
2023-05-10T14:22:32.493Z,15.40
2023-05-10T14:25:00.326Z,15.49
2023-05-10T14:27:50.300Z,15.60
2023-05-10T14:30:17.973Z,15.49
2023-05-10T14:32:45.682Z,15.67
2023-05-10T14:35:15.423Z,15.72
2023-05-10T14:37:44.664Z,16.14
2023-05-10T14:40:13.412Z,16.21
2023-05-10T14:42:41.335Z,16.02
2023-05-10T14:45:10.007Z,16.28
2023-05-10T14:47:39.203Z,16.02
2023-05-10T14:50:08.038Z,16.25
2023-05-10T14:52:35.930Z,16.01
2023-05-10T14:55:03.902Z,15.88
2023-05-10T14:57:32.214Z,15.99
2023-05-10T15:00:00.104Z,16.43
2023-05-10T15:02:28.439Z,16.03
2023-05-10T15:04:58.517Z,16.23
2023-05-10T15:07:27.037Z,15.77
2023-05-10T15:09:55.205Z,16.00
2023-05-10T15:12:23.149Z,16.02
2023-05-10T15:14:51.130Z,16.08
2023-05-10T15:17:18.945Z,15.93
2023-05-10T15:19:46.927Z,16.23
2023-05-10T15:22:16.251Z,16.59
2023-05-10T15:24:44.301Z,17.23
2023-05-10T15:27:12.266Z,16.66
2023-05-10T15:29:40.197Z,16.68
2023-05-10T15:32:08.142Z,17.03
2023-05-10T15:34:37.167Z,17.00
2023-05-10T15:37:05.274Z,16.87
2023-05-10T15:39:34.685Z,16.53
2023-05-10T15:42:02.660Z,16.42
2023-05-10T15:44:30.574Z,16.23
2023-05-10T15:46:58.390Z,16.73
2023-05-10T15:49:26.694Z,16.86
2023-05-10T15:51:54.294Z,16.65
2023-05-10T15:54:21.968Z,16.55
2023-05-10T15:56:51.213Z,16.67
2023-05-10T15:59:18.924Z,16.49
2023-05-10T16:01:46.756Z,16.67
2023-05-10T16:04:14.514Z,16.64
2023-05-10T16:06:42.656Z,17.13
2023-05-10T16:09:10.671Z,17.12
2023-05-10T16:11:38.552Z,16.93
2023-05-10T16:14:07.760Z,16.98
2023-05-10T16:16:35.786Z,17.29
2023-05-10T16:19:04.041Z,17.04
2023-05-10T16:21:33.470Z,16.87
2023-05-10T16:24:01.748Z,16.61
2023-05-10T16:26:29.395Z,16.28
2023-05-10T16:28:57.156Z,16.19
2023-05-10T16:31:26.387Z,16.15
2023-05-10T16:33:54.188Z,16.13
2023-05-10T16:36:22.008Z,15.95
2023-05-10T16:38:49.711Z,15.69
2023-05-10T16:41:17.618Z,15.77
2023-05-10T16:43:45.573Z,16.00
2023-05-10T16:46:13.577Z,15.95
2023-05-10T16:48:43.012Z,15.58
2023-05-10T16:51:10.852Z,15.48
2023-05-10T16:53:38.722Z,15.41
2023-05-10T16:56:06.868Z,15.25
2023-05-10T16:58:35.129Z,15.25
2023-05-10T17:01:02.892Z,15.58
2023-05-10T17:03:31.150Z,15.40
2023-05-10T17:06:00.445Z,15.26
2023-05-10T17:08:28.718Z,15.19
2023-05-10T17:10:56.857Z,15.21
2023-05-10T17:13:24.636Z,14.96
2023-05-10T17:15:52.455Z,15.11
2023-05-10T17:18:20.430Z,14.90
2023-05-10T17:20:48.525Z,14.92
2023-05-10T17:23:17.625Z,14.95
2023-05-10T17:25:45.362Z,15.13
2023-05-10T17:28:13.119Z,15.19
2023-05-10T17:30:41.157Z,15.24
2023-05-10T17:33:09.035Z,15.29
2023-05-10T17:35:36.693Z,15.16
2023-05-10T17:38:04.414Z,15.32
2023-05-10T17:40:33.484Z,15.26
2023-05-10T17:43:01.535Z,15.11
2023-05-10T17:45:29.273Z,15.36
2023-05-10T17:47:57.084Z,15.53
2023-05-10T17:50:24.889Z,15.21
2023-05-10T17:52:52.688Z,15.00
2023-05-10T17:55:20.430Z,15.18
2023-05-10T17:57:51.739Z,14.99
2023-05-10T18:00:19.920Z,15.20
2023-05-10T18:02:47.725Z,14.90
2023-05-10T18:05:15.692Z,14.87
2023-05-10T18:07:43.897Z,14.85
2023-05-10T18:10:12.281Z,14.57
2023-05-10T18:12:40.102Z,14.66
2023-05-10T18:15:10.334Z,14.88
2023-05-10T18:17:38.124Z,15.12
2023-05-10T18:20:07.341Z,15.19
2023-05-10T18:22:35.111Z,14.78
2023-05-10T18:25:02.982Z,14.80
2023-05-10T18:27:30.667Z,14.98
2023-05-10T18:29:58.591Z,14.77
2023-05-10T18:32:27.941Z,14.90
2023-05-10T18:34:56.518Z,15.10
2023-05-10T18:37:24.963Z,15.16
2023-05-10T18:39:54.310Z,15.12
2023-05-10T18:42:23.383Z,14.90
2023-05-10T18:44:52.093Z,15.06
2023-05-10T18:47:20.779Z,15.07
2023-05-10T18:49:50.940Z,15.11
2023-05-10T18:52:19.801Z,15.11
2023-05-10T18:54:48.555Z,14.96
2023-05-10T18:57:17.350Z,14.92
2023-05-10T18:59:46.031Z,14.84
2023-05-10T19:02:15.219Z,14.57
2023-05-10T19:04:44.040Z,14.26
2023-05-10T19:07:13.934Z,14.19
2023-05-10T19:09:42.775Z,14.28
2023-05-10T19:12:11.642Z,14.40
2023-05-10T19:14:40.439Z,14.21
2023-05-10T19:17:09.046Z,14.37
2023-05-10T19:19:38.862Z,14.45
2023-05-10T19:22:07.522Z,14.57
2023-05-10T19:24:37.529Z,14.51
2023-05-10T19:27:06.270Z,14.38
2023-05-10T19:29:34.999Z,14.13
2023-05-10T19:32:02.810Z,13.98
2023-05-10T19:34:31.048Z,13.76
2023-05-10T19:36:59.251Z,14.03
2023-05-10T19:39:26.974Z,14.11
2023-05-10T19:41:56.358Z,14.21
2023-05-10T19:44:24.082Z,14.29
2023-05-10T19:46:53.265Z,14.34
2023-05-10T19:49:21.701Z,14.34
2023-05-10T19:51:49.706Z,14.25
2023-05-10T19:54:17.601Z,14.27
2023-05-10T19:56:45.358Z,14.29
2023-05-10T19:59:15.473Z,14.32
2023-05-10T20:01:43.270Z,14.31
2023-05-10T20:04:11.412Z,14.27
2023-05-10T20:06:39.413Z,14.28
2023-05-10T20:09:07.227Z,14.23
2023-05-10T20:11:35.621Z,14.25
2023-05-10T20:14:03.416Z,14.25
2023-05-10T20:16:32.793Z,14.16
2023-05-10T20:19:01.166Z,13.98
2023-05-10T20:21:29.013Z,14.07
2023-05-10T20:23:56.814Z,13.99
2023-05-10T20:26:25.536Z,13.85
2023-05-10T20:28:53.360Z,13.70
2023-05-10T20:31:21.373Z,13.76
2023-05-10T20:33:50.679Z,13.81
2023-05-10T20:36:18.510Z,13.67
2023-05-10T20:38:46.290Z,13.65
2023-05-10T20:41:14.208Z,13.72
2023-05-10T20:43:41.905Z,13.45
2023-05-10T20:46:09.893Z,13.52
2023-05-10T20:48:37.741Z,13.57
2023-05-10T20:51:06.962Z,13.59
2023-05-10T20:53:34.819Z,13.60
2023-05-10T20:56:02.663Z,13.56
2023-05-10T20:58:30.784Z,13.54
2023-05-10T21:00:58.590Z,13.44
2023-05-10T21:03:26.362Z,13.50
2023-05-10T21:05:54.163Z,13.40
2023-05-10T21:08:23.204Z,13.44
2023-05-10T21:10:51.060Z,13.40
2023-05-10T21:13:18.764Z,13.49
2023-05-10T21:15:46.623Z,13.39
2023-05-10T21:18:14.518Z,13.17
2023-05-10T21:20:42.327Z,13.19
2023-05-10T21:23:10.168Z,13.30
2023-05-10T21:25:39.342Z,13.33
2023-05-10T21:28:07.313Z,13.38
2023-05-10T21:30:36.056Z,13.36
2023-05-10T21:33:04.492Z,13.39
2023-05-10T21:35:32.324Z,13.39
2023-05-10T21:38:00.148Z,13.38
2023-05-10T21:40:29.497Z,13.39
2023-05-10T21:42:58.672Z,13.39
2023-05-10T21:45:26.453Z,13.38
2023-05-10T21:47:54.292Z,13.38
2023-05-10T21:50:22.807Z,13.34
2023-05-10T21:52:50.587Z,13.33
2023-05-10T21:55:19.319Z,13.38
2023-05-10T21:57:46.946Z,13.39
2023-05-10T22:00:17.108Z,13.39
2023-05-10T22:02:45.043Z,13.40
2023-05-10T22:05:12.891Z,13.40
2023-05-10T22:07:40.501Z,13.40
2023-05-10T22:10:09.287Z,13.41
2023-05-10T22:12:37.011Z,13.41
2023-05-10T22:17:39.715Z,13.43
2023-05-10T22:20:09.097Z,13.46
2023-05-10T22:22:37.635Z,13.42
2023-05-10T22:25:06.612Z,13.45
2023-05-10T22:27:34.554Z,13.35
2023-05-10T22:30:02.850Z,13.34
2023-05-10T22:32:30.665Z,13.40
2023-05-10T22:34:59.757Z,13.40
2023-05-10T22:37:27.624Z,13.34
2023-05-10T22:39:55.280Z,13.34
2023-05-10T22:42:23.003Z,13.37
2023-05-10T22:44:50.706Z,13.32
2023-05-10T22:47:18.390Z,13.33
2023-05-10T22:49:46.140Z,13.31
2023-05-10T22:52:15.257Z,13.34
2023-05-10T22:54:44.194Z,13.36
2023-05-10T22:57:12.186Z,13.36
2023-05-10T22:59:39.974Z,13.38
2023-05-10T23:02:07.901Z,13.39
2023-05-10T23:04:35.869Z,13.40
2023-05-10T23:07:03.755Z,13.39
2023-05-10T23:09:33.163Z,13.40
2023-05-10T23:12:00.877Z,13.42
2023-05-10T23:14:28.641Z,13.34
2023-05-10T23:16:56.349Z,13.39
2023-05-10T23:19:24.596Z,13.39
2023-05-10T23:21:52.304Z,13.41
2023-05-10T23:24:20.090Z,13.31
2023-05-10T23:26:49.213Z,13.23
2023-05-10T23:29:16.884Z,13.31
2023-05-10T23:31:45.822Z,13.34
2023-05-10T23:34:13.773Z,13.33
2023-05-10T23:36:41.631Z,13.34
2023-05-10T23:39:09.402Z,13.38
2023-05-10T23:41:36.994Z,13.37
2023-05-10T23:44:06.283Z,13.39
2023-05-10T23:46:34.007Z,13.40
2023-05-10T23:49:01.793Z,13.43
2023-05-10T23:51:29.467Z,13.43
2023-05-10T23:53:57.167Z,13.25
2023-05-10T23:56:24.840Z,13.32
2023-05-10T23:58:52.509Z,13.33
